| time (UTC) | temp F | wind direction | speed MPH | gust MPH | rain 1hr in | rain 24hr in | rain mn in | humidity % | barometer mb |
| 20260506021537 | 68 | 322 | 1.0 | 3.0 | 0.00 | 0.00 | 0.00 | 56 | 1017.7 |
| 20260506020150 | 69 | 327 | 2.0 | 7.0 | 0.00 | 0.00 | 0.00 | 56 | 1017.6 |
| 20260506014609 | 70 | 347 | 3.0 | 9.0 | 0.00 | 0.00 | 0.00 | 54 | 1017.4 |
| 20260506013036 | 71 | 341 | 4.0 | 10.0 | 0.00 | 0.00 | 0.00 | 52 | 1017.3 |
| 20260506011535 | 72 | 347 | 3.0 | 7.0 | 0.00 | 0.00 | 0.00 | 51 | 1017.3 |
| 20260506010036 | 72 | 353 | 4.0 | 7.0 | 0.00 | 0.00 | 0.00 | 54 | 1017.4 |
| 20260506003036 | 72 | 343 | 3.0 | 9.0 | 0.00 | 0.00 | 0.00 | 54 | 1017.4 |
| 20260506001534 | 72 | 347 | 4.0 | 9.0 | 0.00 | 0.00 | 0.00 | 54 | 1017.4 |
| 20260506000034 | 72 | 333 | 4.0 | 8.0 | 0.00 | 0.00 | 0.00 | 53 | 1017.5 |
| 20260505234536 | 73 | 328 | 3.0 | 8.0 | 0.00 | 0.00 | 0.00 | 53 | 1017.6 |
| 20260505230038 | 72 | 299 | 3.0 | 8.0 | 0.00 | 0.00 | 0.00 | 53 | 1017.7 |
| 20260505224536 | 72 | 307 | 4.0 | 9.0 | 0.00 | 0.00 | 0.00 | 53 | 1017.7 |
| 20260505223036 | 72 | 284 | 4.0 | 9.0 | 0.00 | 0.00 | 0.00 | 53 | 1017.8 |
| 20260505221653 | 71 | 296 | 3.0 | 10.0 | 0.00 | 0.00 | 0.00 | 54 | 1017.8 |
| 20260505220036 | 72 | 322 | 4.0 | 9.0 | 0.00 | 0.00 | 0.00 | 54 | 1018.0 |
| 20260505214537 | 71 | 293 | 3.0 | 8.0 | 0.00 | 0.00 | 0.00 | 54 | 1018.1 |
| 20260505203035 | 69 | 334 | 4.0 | 10.0 | 0.00 | 0.00 | 0.00 | 57 | 1018.3 |
| 20260505201610 | 69 | 329 | 3.0 | 9.0 | 0.00 | 0.00 | 0.00 | 56 | 1018.4 |
| 20260505200038 | 68 | 291 | 3.0 | 7.0 | 0.00 | 0.00 | 0.00 | 57 | 1018.4 |
| 20260505193031 | 67 | 322 | 3.0 | 10.0 | 0.00 | 0.00 | 0.00 | 57 | 1018.5 |
| 20260505191537 | 67 | 308 | 3.0 | 9.0 | 0.00 | 0.00 | 0.00 | 57 | 1018.6 |
| 20260505190143 | 66 | 314 | 4.0 | 8.0 | 0.00 | 0.00 | 0.00 | 59 | 1018.6 |
| 20260505184535 | 65 | 355 | 3.0 | 12.0 | 0.00 | 0.00 | 0.00 | 59 | 1018.7 |
| 20260505180037 | 64 | 327 | 4.0 | 8.0 | 0.00 | 0.00 | 0.00 | 61 | 1018.6 |
| 20260505173035 | 63 | 338 | 4.0 | 8.0 | 0.00 | 0.00 | 0.00 | 63 | 1018.5 |
| 20260505171609 | 62 | 327 | 3.0 | 7.0 | 0.00 | 0.00 | 0.00 | 63 | 1018.5 |
| 20260505170036 | 62 | 312 | 3.0 | 9.0 | 0.00 | 0.00 | 0.00 | 65 | 1018.4 |
| 20260505164536 | 60 | 317 | 2.0 | 7.0 | 0.00 | 0.00 | 0.00 | 67 | 1018.3 |
| 20260505161530 | 58 | 349 | 4.0 | 7.0 | 0.00 | 0.00 | 0.00 | 70 | 1018.3 |
| 20260505151644 | 59 | 337 | 2.0 | 5.0 | 0.00 | 0.00 | 0.00 | 67 | 1017.9 |
| 20260505121534 | 49 | 93 | 5.0 | 7.0 | 0.00 | 0.00 | 0.00 | 85 | 1017.0 |
| 20260505120043 | 49 | 95 | 5.0 | 7.0 | 0.00 | 0.00 | 0.00 | 85 | 1017.0 |
| 20260505120036 | 49 | 96 | 5.0 | 8.0 | 0.00 | 0.00 | 0.00 | 85 | 1017.0 |
| 20260505114646 | 50 | 102 | 4.0 | 7.0 | 0.00 | 0.00 | 0.00 | 84 | 1017.0 |
| 20260505113037 | 50 | 98 | 4.0 | 7.0 | 0.00 | 0.00 | 0.00 | 83 | 1017.0 |
| 20260505100046 | 52 | 165 | 3.0 | 5.0 | 0.00 | 0.00 | 0.00 | 79 | 1016.7 |
| 20260505084537 | 51 | 105 | 4.0 | 6.0 | 0.00 | 0.00 | 0.00 | 79 | 1016.5 |
| 20260505080037 | 56 | 102 | 3.0 | 6.0 | 0.00 | 0.00 | 0.00 | 73 | 1016.3 |
| 20260505061536 | 59 | 221 | 2.0 | 10.0 | 0.00 | 0.00 | 0.00 | 71 | 1016.4 |
| 20260505060036 | 59 | 245 | 3.0 | 9.0 | 0.00 | 0.00 | 0.00 | 70 | 1016.4 |
| 20260505054536 | 59 | 261 | 3.0 | 9.0 | 0.00 | 0.00 | 0.00 | 69 | 1016.3 |
| 20260505053038 | 59 | 271 | 2.0 | 6.0 | 0.00 | 0.00 | 0.00 | 67 | 1016.3 |
| 20260505051536 | 59 | 273 | 2.0 | 7.0 | 0.00 | 0.00 | 0.00 | 65 | 1016.2 |
| 20260505041536 | 63 | 328 | 2.0 | 8.0 | 0.00 | 0.00 | 0.00 | 48 | 1015.4 |
| 20260505033036 | 63 | 238 | 2.0 | 9.0 | 0.00 | 0.00 | 0.00 | 47 | 1015.3 |
| 20260505030038 | 64 | 220 | 3.0 | 9.0 | 0.00 | 0.00 | 0.00 | 46 | 1015.1 |
| 20260505024536 | 65 | 206 | 3.0 | 12.0 | 0.00 | 0.00 | 0.00 | 45 | 1015.1 |